createdAt,value
2022-11-05T00:00:17.208Z,3.10
2022-11-05T00:03:02.671Z,3.53
2022-11-05T00:05:47.976Z,2.88
2022-11-05T00:08:33.627Z,2.22
2022-11-05T00:11:00.476Z,2.08
2022-11-05T00:13:56.399Z,2.50
2022-11-05T00:16:41.262Z,1.88
2022-11-05T00:19:07.932Z,2.25
2022-11-05T00:21:55.945Z,2.70
2022-11-05T00:24:42.062Z,2.42
2022-11-05T00:27:09.336Z,1.80
2022-11-05T00:29:36.322Z,2.33
2022-11-05T00:32:03.141Z,1.90
2022-11-05T00:34:32.150Z,2.45
2022-11-05T00:36:58.881Z,2.10
2022-11-05T00:39:25.526Z,1.77
2022-11-05T00:42:12.049Z,2.03
2022-11-05T00:44:57.402Z,2.05
2022-11-05T00:47:46.423Z,1.13
2022-11-05T00:50:13.475Z,1.48
2022-11-05T00:52:59.268Z,1.95
2022-11-05T00:55:44.709Z,1.50
2022-11-05T01:01:29.611Z,1.17
2022-11-05T01:03:57.031Z,1.33
2022-11-05T01:06:25.838Z,1.42
2022-11-05T01:09:22.711Z,1.27
2022-11-05T01:11:51.494Z,1.10
2022-11-05T01:14:22.004Z,1.23
2022-11-05T01:16:52.794Z,1.50
2022-11-05T01:19:21.437Z,1.42
2022-11-05T01:22:16.658Z,1.35
2022-11-05T01:24:47.091Z,1.67
2022-11-05T01:27:34.203Z,1.15
2022-11-05T01:30:42.407Z,1.98
2022-11-05T01:33:13.141Z,1.63
2022-11-05T01:35:55.937Z,1.80
2022-11-05T01:38:28.988Z,2.13
2022-11-05T01:41:05.345Z,2.65
2022-11-05T01:44:36.032Z,3.13
2022-11-05T01:47:18.389Z,2.63
2022-11-05T01:52:52.746Z,2.85
2022-11-05T01:55:43.472Z,3.00
2022-11-05T01:59:09.671Z,2.95
2022-11-05T02:01:48.741Z,2.47
2022-11-05T02:04:47.285Z,3.10
2022-11-05T02:10:42.365Z,2.67
2022-11-05T02:13:10.096Z,3.13
2022-11-05T02:16:22.584Z,3.35
2022-11-05T02:19:10.780Z,3.67
2022-11-05T02:22:15.628Z,3.53
2022-11-05T02:25:22.628Z,3.22
2022-11-05T02:28:11.559Z,3.50
2022-11-05T02:31:24.335Z,3.65
2022-11-05T02:34:05.142Z,4.20
2022-11-05T02:37:23.645Z,4.68
2022-11-05T02:40:22.726Z,3.40
2022-11-05T02:43:47.910Z,3.67
2022-11-05T02:46:34.549Z,3.80
2022-11-05T02:50:15.011Z,3.63
2022-11-05T02:53:09.241Z,4.70
2022-11-05T02:55:50.055Z,4.93
2022-11-05T02:58:39.924Z,5.60
2022-11-05T03:01:20.892Z,6.20
2022-11-05T03:04:06.797Z,6.25
2022-11-05T03:06:58.558Z,6.97
2022-11-05T03:10:13.689Z,6.63
2022-11-05T03:13:12.905Z,6.65
2022-11-05T03:16:29.454Z,7.63
2022-11-05T03:23:21.224Z,6.68
2022-11-05T03:26:12.683Z,7.70
2022-11-05T03:29:31.537Z,8.05
2022-11-05T03:32:05.324Z,7.13
2022-11-05T03:34:53.798Z,7.70
2022-11-05T03:37:50.317Z,7.55
2022-11-05T03:40:24.296Z,7.88
2022-11-05T03:42:57.329Z,7.72
2022-11-05T03:45:54.220Z,8.02
2022-11-05T03:48:56.616Z,6.05
2022-11-05T03:52:23.893Z,6.68
2022-11-05T03:55:07.415Z,6.15
2022-11-05T03:58:58.635Z,5.32
2022-11-05T04:11:20.766Z,4.03
2022-11-05T04:14:16.661Z,3.13
2022-11-05T04:17:18.513Z,2.67
2022-11-05T04:26:45.648Z,2.05
2022-11-05T04:29:52.606Z,1.73
2022-11-05T04:32:20.156Z,2.17
2022-11-05T04:34:47.989Z,1.85
2022-11-05T04:37:39.373Z,2.17
2022-11-05T04:40:12.997Z,2.20
2022-11-05T04:45:31.572Z,2.95
2022-11-05T04:48:18.699Z,2.58
2022-11-05T04:51:12.191Z,3.63
2022-11-05T04:53:40.049Z,3.70
2022-11-05T04:56:19.286Z,3.78
2022-11-05T04:58:47.458Z,2.92
2022-11-05T05:01:24.299Z,3.00
2022-11-05T05:03:53.500Z,2.30
2022-11-05T05:06:29.258Z,1.73
2022-11-05T05:09:00.448Z,2.03
2022-11-05T05:11:27.516Z,2.33
2022-11-05T05:13:54.971Z,1.90
2022-11-05T05:16:28.882Z,1.98
2022-11-05T05:18:57.739Z,2.47
2022-11-05T05:21:39.051Z,2.33
2022-11-05T05:24:27.689Z,2.90
2022-11-05T05:26:59.541Z,3.00
2022-11-05T05:29:34.343Z,2.40
2022-11-05T05:32:09.657Z,3.30
2022-11-05T05:34:40.453Z,3.13
2022-11-05T05:40:07.476Z,2.85
2022-11-05T05:42:43.099Z,3.83
2022-11-05T05:45:15.358Z,2.17
2022-11-05T05:50:37.699Z,1.75
2022-11-05T05:53:19.230Z,1.55
2022-11-05T05:55:55.372Z,1.52
2022-11-05T05:58:39.326Z,2.33
2022-11-05T06:01:19.215Z,2.33
2022-11-05T06:07:23.515Z,1.90
2022-11-05T06:10:21.532Z,2.03
2022-11-05T06:13:10.094Z,2.40
2022-11-05T06:15:40.945Z,1.52
2022-11-05T06:18:18.742Z,2.05
2022-11-05T06:20:50.024Z,2.10
2022-11-05T06:23:20.276Z,2.05
2022-11-05T06:26:01.559Z,2.17
2022-11-05T06:28:40.345Z,1.98
2022-11-05T06:31:30.493Z,2.85
2022-11-05T06:34:02.356Z,2.78
2022-11-05T06:36:30.457Z,3.10
2022-11-05T06:39:16.149Z,3.30
2022-11-05T06:42:17.043Z,3.40
2022-11-05T06:47:58.010Z,4.05
2022-11-05T06:50:44.290Z,3.88
2022-11-05T06:54:21.996Z,4.65
2022-11-05T06:57:17.634Z,4.90
2022-11-05T06:59:47.469Z,4.80
2022-11-05T07:02:19.098Z,5.15
2022-11-05T07:05:04.540Z,4.57
2022-11-05T07:07:41.808Z,4.13
2022-11-05T07:10:23.604Z,6.43
2022-11-05T07:13:06.766Z,4.65
2022-11-05T07:15:37.494Z,5.10
2022-11-05T07:18:08.452Z,5.45
2022-11-05T07:20:41.931Z,5.85
2022-11-05T07:23:15.602Z,5.53
2022-11-05T07:25:46.318Z,5.97
2022-11-05T07:28:16.723Z,5.35
2022-11-05T07:30:50.766Z,4.68
2022-11-05T07:33:18.114Z,4.93
2022-11-05T07:35:48.247Z,5.22
2022-11-05T07:38:19.319Z,5.45
2022-11-05T07:40:49.958Z,5.55
2022-11-05T07:43:17.466Z,5.97
2022-11-05T07:45:47.970Z,8.13
2022-11-05T07:48:15.460Z,7.55
2022-11-05T07:50:45.658Z,7.18
2022-11-05T07:53:15.339Z,5.78
2022-11-05T07:55:50.454Z,6.10
2022-11-05T07:58:19.788Z,7.22
2022-11-05T08:00:53.580Z,6.53
2022-11-05T08:03:39.497Z,5.78
2022-11-05T08:06:07.973Z,5.45
2022-11-05T08:08:37.896Z,5.32
2022-11-05T08:11:10.029Z,5.28
2022-11-05T08:13:37.907Z,5.78
2022-11-05T08:16:06.460Z,5.82
2022-11-05T08:18:33.652Z,7.30
2022-11-05T08:21:09.878Z,7.20
2022-11-05T08:23:39.959Z,6.82
2022-11-05T08:28:34.280Z,6.10
2022-11-05T08:31:01.470Z,6.55
2022-11-05T08:33:31.941Z,6.85
2022-11-05T08:36:06.903Z,5.88
2022-11-05T08:38:36.698Z,5.38
2022-11-05T08:43:30.969Z,6.07
2022-11-05T08:46:04.113Z,7.43
2022-11-05T08:48:31.302Z,7.15
2022-11-05T08:51:02.063Z,8.18
2022-11-05T08:53:29.605Z,6.53
2022-11-05T08:56:02.653Z,6.40
2022-11-05T08:58:33.817Z,6.55
2022-11-05T09:01:05.421Z,5.68
2022-11-05T09:03:36.047Z,5.60
2022-11-05T09:06:06.534Z,5.72
2022-11-05T09:08:34.296Z,4.88
2022-11-05T09:11:04.292Z,4.75
2022-11-05T09:13:31.265Z,4.78
2022-11-05T09:15:58.784Z,5.03
2022-11-05T09:18:25.657Z,5.43
2022-11-05T09:20:52.835Z,5.70
2022-11-05T09:23:19.439Z,6.57
2022-11-05T09:25:46.404Z,6.30
2022-11-05T09:28:17.084Z,5.32
2022-11-05T09:30:46.689Z,4.93
2022-11-05T09:33:14.142Z,6.57
2022-11-05T09:35:42.019Z,5.90
2022-11-05T09:38:08.896Z,6.18
2022-11-05T09:40:59.415Z,6.07
2022-11-05T09:43:40.535Z,6.57
2022-11-05T09:46:15.070Z,5.50
2022-11-05T09:48:45.102Z,5.40
2022-11-05T09:51:19.254Z,5.40
2022-11-05T09:53:49.808Z,4.70
2022-11-05T09:56:26.722Z,6.05
2022-11-05T09:58:59.287Z,5.03
2022-11-05T10:01:30.988Z,6.45
2022-11-05T10:04:02.022Z,6.20
2022-11-05T10:06:29.305Z,6.05
2022-11-05T10:09:05.440Z,6.00
2022-11-05T10:11:39.326Z,5.72
2022-11-05T10:14:25.962Z,5.55
2022-11-05T10:17:03.914Z,6.30
2022-11-05T10:19:44.310Z,7.07
2022-11-05T10:22:16.509Z,9.32
2022-11-05T10:24:47.264Z,7.03
2022-11-05T10:27:26.383Z,6.93
2022-11-05T10:29:53.423Z,5.75
2022-11-05T10:32:37.460Z,5.82
2022-11-05T10:35:08.031Z,6.15
2022-11-05T10:37:40.633Z,6.13
2022-11-05T10:40:43.211Z,5.35
2022-11-05T10:43:31.702Z,4.47
2022-11-05T10:46:15.918Z,4.47
2022-11-05T10:49:18.934Z,5.03
2022-11-05T10:51:47.038Z,5.28
2022-11-05T10:54:18.241Z,5.22
2022-11-05T10:56:45.133Z,5.50
2022-11-05T10:59:27.336Z,5.72
2022-11-05T11:02:05.571Z,5.03
2022-11-05T11:04:37.731Z,4.78
2022-11-05T11:07:04.995Z,5.50
2022-11-05T11:09:35.702Z,4.95
2022-11-05T11:12:25.798Z,5.03
2022-11-05T11:15:15.144Z,5.55
2022-11-05T11:17:41.998Z,5.85
2022-11-05T11:20:32.133Z,6.80
2022-11-05T11:23:16.339Z,6.80
2022-11-05T11:25:51.988Z,7.90
2022-11-05T11:28:47.480Z,6.90
2022-11-05T11:31:22.262Z,7.47
2022-11-05T11:33:55.845Z,7.55
2022-11-05T11:36:27.063Z,7.40
2022-11-05T11:39:01.094Z,7.03
2022-11-05T11:41:33.895Z,5.65
2022-11-05T11:44:07.532Z,5.25
2022-11-05T11:46:36.000Z,6.65
2022-11-05T11:49:03.445Z,5.03
2022-11-05T11:51:49.671Z,5.40
2022-11-05T11:54:28.875Z,6.32
2022-11-05T11:56:55.885Z,5.30
2022-11-05T11:59:40.876Z,4.75
2022-11-05T12:02:18.455Z,4.32
2022-11-05T12:05:17.557Z,4.25
2022-11-05T12:07:53.296Z,4.70
2022-11-05T12:11:15.358Z,5.53
2022-11-05T12:13:53.768Z,4.97
2022-11-05T12:16:32.382Z,9.30
2022-11-05T12:19:23.385Z,5.30
2022-11-05T12:22:20.850Z,6.53
2022-11-05T12:25:09.653Z,5.13
2022-11-05T12:27:55.033Z,6.20
2022-11-05T12:30:22.242Z,5.13
2022-11-05T12:33:15.307Z,2.75
2022-11-05T12:35:57.851Z,2.10
2022-11-05T12:39:01.880Z,2.95
2022-11-05T12:41:41.653Z,2.58
2022-11-05T12:47:17.619Z,2.55
2022-11-05T12:49:57.595Z,2.25
2022-11-05T12:52:39.419Z,1.95
2022-11-05T12:55:14.063Z,2.38
2022-11-05T12:57:43.195Z,1.10
2022-11-05T13:00:24.419Z,1.75
2022-11-05T13:03:12.837Z,1.52
2022-11-05T13:06:01.492Z,2.25
2022-11-05T13:08:41.569Z,0.43
2022-11-05T13:11:26.977Z,1.00
2022-11-05T13:14:06.506Z,1.98
2022-11-05T13:16:46.213Z,2.35
2022-11-05T13:22:13.445Z,1.20
2022-11-05T13:24:48.454Z,2.05
2022-11-05T13:27:44.658Z,1.67
2022-11-05T13:30:21.693Z,0.52
2022-11-05T13:33:12.501Z,0.38
2022-11-05T13:36:20.336Z,1.38
2022-11-05T13:39:00.285Z,0.80
2022-11-05T13:41:45.749Z,0.60
2022-11-05T13:44:35.124Z,3.35
2022-11-05T13:47:27.680Z,1.73
2022-11-05T13:50:05.933Z,2.53
2022-11-05T13:53:00.503Z,1.33
2022-11-05T13:55:51.214Z,1.10
2022-11-05T13:58:23.846Z,0.65
2022-11-05T14:01:24.575Z,0.50
2022-11-05T14:03:54.680Z,0.73
2022-11-05T14:06:48.135Z,1.92
2022-11-05T14:09:21.986Z,0.73
2022-11-05T14:11:52.985Z,0.98
2022-11-05T14:14:23.680Z,0.90
2022-11-05T14:17:14.327Z,2.17
2022-11-05T14:20:11.531Z,1.77
2022-11-05T14:22:41.545Z,1.60
2022-11-05T14:25:17.168Z,1.42
2022-11-05T14:27:47.235Z,1.70
2022-11-05T14:30:41.073Z,1.55
2022-11-05T14:33:18.193Z,1.90
2022-11-05T14:35:44.740Z,2.05
2022-11-05T14:38:19.607Z,1.98
2022-11-05T14:40:47.008Z,3.05
2022-11-05T14:43:13.827Z,2.58
2022-11-05T14:45:53.555Z,2.25
2022-11-05T14:48:48.032Z,2.35
2022-11-05T14:51:34.453Z,1.73
2022-11-05T14:54:15.416Z,2.45
2022-11-05T14:56:56.654Z,1.90
2022-11-05T14:59:31.655Z,2.83
2022-11-05T15:02:13.181Z,1.75
2022-11-05T15:04:42.640Z,1.88
2022-11-05T15:07:09.223Z,1.80
2022-11-05T15:09:47.636Z,2.10
2022-11-05T15:12:14.226Z,2.35
2022-11-05T15:15:21.532Z,2.13
2022-11-05T15:17:58.748Z,3.10
2022-11-05T15:20:38.852Z,2.40
2022-11-05T15:23:10.986Z,2.03
2022-11-05T15:25:45.835Z,1.95
2022-11-05T15:28:30.630Z,2.00
2022-11-05T15:31:03.502Z,1.90
2022-11-05T15:33:31.644Z,3.03
2022-11-05T15:36:27.414Z,2.65
2022-11-05T15:39:22.975Z,3.30
2022-11-05T15:41:41.418Z,3.15
2022-11-05T15:44:24.513Z,3.45
2022-11-05T15:47:08.298Z,2.65
2022-11-05T15:49:35.031Z,2.67
2022-11-05T15:52:01.889Z,2.50
2022-11-05T15:54:30.635Z,3.17
2022-11-05T15:57:00.268Z,5.95
2022-11-05T15:59:29.757Z,2.63
2022-11-05T16:01:58.168Z,3.20
2022-11-05T16:04:31.078Z,3.45
2022-11-05T16:07:01.378Z,4.78
2022-11-05T16:09:30.618Z,4.05
2022-11-05T16:12:19.562Z,3.67
2022-11-05T16:15:04.808Z,3.90
2022-11-05T16:17:39.475Z,3.67
2022-11-05T16:20:35.276Z,3.65
2022-11-05T16:23:09.366Z,4.40
2022-11-05T16:25:42.301Z,3.72
2022-11-05T16:28:26.126Z,4.57
2022-11-05T16:31:01.901Z,5.93
2022-11-05T16:33:34.272Z,5.72
2022-11-05T16:36:00.988Z,4.00
2022-11-05T16:38:27.828Z,3.63
2022-11-05T16:40:54.476Z,4.53
2022-11-05T16:43:25.426Z,5.03
2022-11-05T16:45:58.479Z,5.93
2022-11-05T16:48:26.331Z,4.65
2022-11-05T16:50:53.832Z,10.27
2022-11-05T16:53:20.618Z,5.32
2022-11-05T16:55:47.437Z,4.70
2022-11-05T16:58:22.897Z,5.47
2022-11-05T17:00:58.899Z,4.93
2022-11-05T17:03:30.789Z,4.53
2022-11-05T17:05:57.452Z,5.80
2022-11-05T17:08:24.069Z,5.47
2022-11-05T17:10:50.711Z,4.78
2022-11-05T17:13:19.179Z,5.32
2022-11-05T17:15:48.043Z,6.35
2022-11-05T17:18:18.506Z,4.32
2022-11-05T17:20:49.529Z,4.22
2022-11-05T17:23:20.810Z,3.35
2022-11-05T17:26:01.262Z,3.28
2022-11-05T17:28:29.330Z,3.95
2022-11-05T17:31:02.316Z,4.05
2022-11-05T17:33:32.293Z,2.90
2022-11-05T17:35:58.927Z,3.38
2022-11-05T17:38:27.018Z,3.75
2022-11-05T17:40:54.136Z,3.60
2022-11-05T17:43:20.904Z,4.25
2022-11-05T17:45:50.154Z,4.72
2022-11-05T17:48:17.928Z,3.83
2022-11-05T17:50:47.449Z,4.50
2022-11-05T17:55:46.755Z,4.05
2022-11-05T17:58:13.995Z,4.10
2022-11-05T18:00:42.249Z,4.93
2022-11-05T18:03:10.625Z,6.07
2022-11-05T18:05:38.199Z,7.22
2022-11-05T18:08:06.456Z,8.32
2022-11-05T18:10:37.460Z,9.45
2022-11-05T18:13:07.304Z,10.40
2022-11-05T18:15:35.492Z,10.77
2022-11-05T18:18:02.088Z,10.40
2022-11-05T18:20:29.065Z,9.60
2022-11-05T18:22:55.693Z,8.95
2022-11-05T18:25:22.237Z,7.13
2022-11-05T18:27:48.819Z,8.07
2022-11-05T18:30:15.875Z,11.10
2022-11-05T18:32:44.504Z,10.50
2022-11-05T18:35:13.307Z,10.00
2022-11-05T18:37:41.480Z,7.23
2022-11-05T18:40:08.768Z,6.80
2022-11-05T18:42:35.610Z,8.23
2022-11-05T18:45:02.249Z,6.93
2022-11-05T18:47:28.968Z,8.70
2022-11-05T18:49:55.617Z,9.40
2022-11-05T18:52:22.221Z,10.55
2022-11-05T18:54:48.919Z,9.80
2022-11-05T18:57:15.935Z,11.73
2022-11-05T18:59:46.609Z,11.40
2022-11-05T19:02:14.396Z,11.18
2022-11-05T19:05:00.443Z,7.18
2022-11-05T19:07:29.421Z,9.50
2022-11-05T19:09:56.054Z,5.88
2022-11-05T19:12:26.763Z,5.40
2022-11-05T19:15:02.436Z,4.78
2022-11-05T19:17:40.278Z,7.07
2022-11-05T19:20:12.465Z,7.38
2022-11-05T19:23:10.815Z,8.35
2022-11-05T19:25:40.768Z,10.02
2022-11-05T19:28:10.371Z,7.20
2022-11-05T19:30:38.122Z,7.03
2022-11-05T19:33:04.679Z,6.10
2022-11-05T19:35:31.310Z,6.45
2022-11-05T19:37:58.122Z,6.97
2022-11-05T19:40:25.303Z,5.53
2022-11-05T19:42:51.916Z,4.75
2022-11-05T19:45:45.590Z,6.47
2022-11-05T19:48:06.389Z,4.72
2022-11-05T19:50:33.441Z,3.80
2022-11-05T19:53:03.095Z,3.58
2022-11-05T19:55:32.713Z,3.95
2022-11-05T19:57:59.351Z,6.03
2022-11-05T20:00:27.527Z,8.75
2022-11-05T20:02:54.326Z,10.77
2022-11-05T20:05:21.303Z,11.30
2022-11-05T20:07:52.771Z,8.05
2022-11-05T20:10:20.321Z,6.80
2022-11-05T20:12:47.470Z,10.32
2022-11-05T20:15:19.044Z,9.65
2022-11-05T20:17:52.955Z,10.25
2022-11-05T20:20:19.871Z,10.60
2022-11-05T20:22:46.627Z,10.52
2022-11-05T20:25:13.370Z,7.20
2022-11-05T20:27:40.053Z,6.88
2022-11-05T20:30:09.831Z,6.40
2022-11-05T20:35:02.990Z,13.80
2022-11-05T20:37:30.525Z,6.13
2022-11-05T20:39:57.080Z,5.22
2022-11-05T20:42:23.841Z,8.02
2022-11-05T20:44:50.490Z,10.65
2022-11-05T20:47:17.304Z,7.72
2022-11-05T20:49:44.146Z,8.45
2022-11-05T20:52:16.937Z,7.90
2022-11-05T20:54:44.241Z,9.10
2022-11-05T20:57:10.813Z,9.35
2022-11-05T20:59:37.665Z,16.17
2022-11-05T21:02:04.433Z,9.38
2022-11-05T21:04:31.140Z,10.38
2022-11-05T21:06:57.778Z,10.43
2022-11-05T21:09:24.469Z,9.95
2022-11-05T21:12:09.742Z,15.40
2022-11-05T21:14:37.901Z,10.35
2022-11-05T21:17:06.495Z,10.35
2022-11-05T21:19:35.791Z,10.18
2022-11-05T21:22:04.042Z,11.63
2022-11-05T21:24:32.705Z,11.15
2022-11-05T21:26:59.350Z,9.98
2022-11-05T21:29:26.322Z,10.13
2022-11-05T21:31:53.770Z,9.43
2022-11-05T21:34:20.398Z,10.10
2022-11-05T21:36:47.236Z,9.48
2022-11-05T21:39:16.426Z,9.55
2022-11-05T21:41:43.095Z,9.98
2022-11-05T21:44:09.869Z,9.25
2022-11-05T21:46:38.153Z,8.50
2022-11-05T21:49:07.728Z,10.60
2022-11-05T21:51:52.833Z,9.50
2022-11-05T21:54:38.407Z,8.90
2022-11-05T21:57:23.099Z,8.63
2022-11-05T21:59:51.814Z,8.95
2022-11-05T22:02:23.946Z,8.48
2022-11-05T22:04:55.593Z,8.80
2022-11-05T22:07:25.432Z,8.10
2022-11-05T22:12:18.685Z,9.20
2022-11-05T22:14:45.375Z,9.18
2022-11-05T22:17:14.887Z,8.77
2022-11-05T22:19:49.447Z,9.80
2022-11-05T22:22:17.789Z,8.20
2022-11-05T22:24:44.617Z,9.10
2022-11-05T22:27:14.385Z,9.13
2022-11-05T22:32:07.813Z,9.32
2022-11-05T22:34:34.390Z,9.50
2022-11-05T22:37:01.034Z,9.13
2022-11-05T22:39:27.687Z,8.38
2022-11-05T22:41:56.087Z,8.77
2022-11-05T22:44:23.444Z,9.13
2022-11-05T22:46:50.068Z,10.75
2022-11-05T22:49:17.083Z,9.75
2022-11-05T22:51:44.614Z,9.20
2022-11-05T22:54:16.015Z,12.85
2022-11-05T22:56:45.496Z,9.18
2022-11-05T22:59:15.331Z,8.32
2022-11-05T23:04:10.003Z,7.53
2022-11-05T23:06:55.058Z,9.35
2022-11-05T23:09:58.227Z,9.15
2022-11-05T23:12:26.446Z,7.78
2022-11-05T23:14:54.465Z,8.45
2022-11-05T23:17:40.132Z,9.00
2022-11-05T23:20:37.509Z,9.48
2022-11-05T23:23:22.691Z,8.45
2022-11-05T23:25:49.340Z,8.38
2022-11-05T23:28:21.218Z,11.43
2022-11-05T23:31:06.353Z,10.07
2022-11-05T23:33:34.502Z,12.30
2022-11-05T23:36:20.183Z,9.20
2022-11-05T23:38:46.898Z,10.20
2022-11-05T23:41:32.035Z,8.82
2022-11-05T23:44:19.363Z,11.32
2022-11-05T23:47:04.592Z,10.38
2022-11-05T23:49:31.256Z,9.13
2022-11-05T23:51:57.889Z,10.68
2022-11-05T23:54:27.288Z,9.07
2022-11-05T23:56:53.891Z,10.82
2022-11-05T23:59:20.490Z,10.20
